Time;durP1;ratioP1;P1;durP2;ratioP2;P2;SDS_P1;SDS_P2;PMS_P1;PMS_P2;Temp;Humidity;BMP_temperature;BMP_pressure;BME280_temperature;BME280_humidity;BME280_pressure;Samples;Min_cycle;Max_cycle;Signal;HPM_P1;HPM_P2
2022/06/21 00:01:03;;;;;;;1999.90;999.90;;;;;;;20.92;54.27;95247.00;4989739;28;20081;-69
2022/06/21 00:03:29;;;;;;;1999.90;999.90;;;;;;;20.97;54.83;95289.19;4990063;28;20035;-69
2022/06/21 00:05:55;;;;;;;1999.90;999.90;;;;;;;20.02;56.67;95230.69;4990045;28;20026;-69
2022/06/21 00:08:32;;;;;;;1999.90;999.90;;;;;;;20.59;55.11;95225.34;4989892;28;20110;-69
2022/06/21 00:10:59;;;;;;;1999.90;999.90;;;;;;;21.30;54.22;95277.66;4993275;28;20106;-69
2022/06/21 00:13:28;;;;;;;1999.90;999.90;;;;;;;20.55;55.83;95298.25;4992640;28;20054;-69
2022/06/21 00:16:00;;;;;;;1999.90;999.90;;;;;;;20.87;54.81;95258.16;4994015;28;20026;-69
2022/06/21 00:18:28;;;;;;;1999.90;999.90;;;;;;;20.87;55.17;95295.22;4993679;28;20056;-69
2022/06/21 00:20:54;;;;;;;1999.90;999.90;;;;;;;20.01;57.05;95275.00;4993542;28;20034;-70
2022/06/21 00:23:24;;;;;;;1999.90;999.90;;;;;;;19.86;57.40;95259.69;4993832;28;20382;-69
2022/06/21 00:25:50;;;;;;;1999.90;999.90;;;;;;;19.84;58.37;95292.47;4993818;28;20030;-69
2022/06/21 00:28:17;;;;;;;1999.90;999.90;;;;;;;19.78;58.64;95298.50;4993378;28;20030;-69
2022/06/21 00:30:44;;;;;;;1999.90;999.90;;;;;;;19.51;58.60;95240.97;4993173;28;20022;-69
2022/06/21 00:33:19;;;;;;;1999.90;999.90;;;;;;;20.12;56.96;95246.25;4993558;28;20026;-69
2022/06/21 00:35:47;;;;;;;1999.90;999.90;;;;;;;20.04;57.28;95260.78;4993363;28;20402;-69
2022/06/21 00:38:15;;;;;;;1999.90;999.90;;;;;;;20.02;58.60;95300.88;4993517;28;20030;-69
2022/06/21 00:40:41;;;;;;;1999.90;999.90;;;;;;;20.18;57.36;95287.25;4993016;28;20041;-69
2022/06/21 00:43:14;;;;;;;1999.90;999.90;;;;;;;19.71;57.35;95239.81;4993388;28;20097;-69
2022/06/21 00:45:43;;;;;;;1999.90;999.90;;;;;;;20.85;55.29;95292.91;4993652;28;20026;-70
2022/06/21 00:48:13;;;;;;;1999.90;999.90;;;;;;;20.09;55.61;95249.69;4993256;28;20105;-69
2022/06/21 00:50:43;;;;;;;1999.90;999.90;;;;;;;19.71;57.45;95312.66;4992737;28;20041;-69
2022/06/21 00:53:17;;;;;;;1999.90;999.90;;;;;;;20.26;55.98;95281.56;4992943;28;20030;-69
2022/06/21 00:55:50;;;;;;;1999.90;999.90;;;;;;;20.48;55.74;95311.69;4993151;28;20521;-69
2022/06/21 00:58:18;;;;;;;1999.90;999.90;;;;;;;20.12;55.21;95251.66;4993059;28;20018;-69
2022/06/21 01:00:49;;;;;;;1999.90;999.90;;;;;;;20.00;56.55;95314.72;4992450;28;20166;-69
2022/06/21 01:03:21;;;;;;;1999.90;999.90;;;;;;;19.94;56.56;95309.97;4993004;28;20029;-69
2022/06/21 01:05:47;;;;;;;;;;;;;;;20.35;55.17;95305.66;4993478;28;20041;-69
2022/06/21 01:08:20;;;;;;;1999.90;999.90;;;;;;;20.14;54.68;95291.81;4992989;28;20368;-69
2022/06/21 01:10:51;;;;;;;1999.90;999.90;;;;;;;19.59;55.47;95223.75;4991078;28;20037;-69
2022/06/21 01:13:19;;;;;;;1999.90;999.90;;;;;;;19.20;57.09;95293.94;4991613;28;20042;-69
2022/06/21 01:15:47;;;;;;;1999.90;999.90;;;;;;;18.84;57.54;95252.00;4992819;28;20033;-69
2022/06/21 01:18:16;;;;;;;1999.90;999.90;;;;;;;20.16;55.09;95311.13;4992913;28;20026;-69
2022/06/21 01:20:44;;;;;;;1999.90;999.90;;;;;;;20.53;53.80;95303.25;4991471;28;20033;-69
2022/06/21 01:23:40;;;;;;;1999.90;999.90;;;;;;;20.06;55.12;95323.28;4992544;28;20034;-69
2022/06/21 01:26:24;;;;;;;1999.90;999.90;;;;;;;19.15;57.46;95323.88;4991735;28;20026;-69
2022/06/21 01:28:51;;;;;;;1999.90;999.90;;;;;;;19.27;56.21;95314.88;4992344;28;20034;-69
2022/06/21 01:31:17;;;;;;;1999.90;999.90;;;;;;;19.15;55.81;95234.91;4991976;28;20026;-69
2022/06/21 01:33:43;;;;;;;1999.90;999.90;;;;;;;18.52;57.01;95262.03;4992504;28;20033;-69
2022/06/21 01:36:19;;;;;;;1999.90;999.90;;;;;;;18.21;57.25;95255.59;4992501;28;20026;-69
2022/06/21 01:38:57;;;;;;;1999.90;999.90;;;;;;;19.10;55.89;95316.06;4992159;28;20038;-69
2022/06/21 01:41:32;;;;;;;1999.90;999.90;;;;;;;18.14;56.34;95233.88;4992091;28;20481;-68
2022/06/21 01:44:02;;;;;;;1999.90;999.90;;;;;;;18.48;55.62;95264.69;4992329;28;20395;-69
2022/06/21 01:46:30;;;;;;;1999.90;999.90;;;;;;;18.91;55.36;95300.66;4991994;28;20018;-69
2022/06/21 01:49:03;;;;;;;1999.90;999.90;;;;;;;18.79;55.34;95288.09;4992117;28;20042;-69
2022/06/21 01:51:42;;;;;;;1999.90;999.90;;;;;;;19.71;53.04;95299.97;4991855;28;20061;-68
2022/06/21 01:54:11;;;;;;;1999.90;999.90;;;;;;;18.85;54.06;95307.47;4992247;28;20049;-69
2022/06/21 01:56:39;;;;;;;1999.90;999.90;;;;;;;19.93;51.94;95303.03;4991736;28;20165;-69
2022/06/21 01:59:10;;;;;;;1999.90;999.90;;;;;;;19.84;50.11;95294.38;4992374;28;20054;-68
2022/06/21 02:01:43;;;;;;;1999.90;999.90;;;;;;;19.84;49.15;95270.09;4991806;28;20357;-69
2022/06/21 02:04:10;;;;;;;1999.90;999.90;;;;;;;18.58;50.49;95261.44;4992178;28;20109;-69
2022/06/21 02:06:41;;;;;;;1999.90;999.90;;;;;;;19.23;50.04;95296.69;4991708;28;20062;-70
2022/06/21 02:09:14;;;;;;;1999.90;999.90;;;;;;;18.55;50.52;95247.88;4991794;28;20030;-68
2022/06/21 02:11:47;;;;;;;1999.90;999.90;;;;;;;19.64;48.66;95285.53;4991347;28;20029;-68
2022/06/21 02:14:30;;;;;;;1999.90;999.90;;;;;;;19.19;49.11;95268.91;4991880;28;20029;-68
2022/06/21 02:17:08;;;;;;;1999.90;999.90;;;;;;;20.05;47.90;95283.16;4991554;28;20487;-68
2022/06/21 02:19:57;;;;;;;1999.90;999.90;;;;;;;19.80;47.82;95266.53;4991564;28;20030;-69
2022/06/21 02:22:25;;;;;;;1999.90;999.90;;;;;;;19.82;47.92;95221.09;4991471;28;20379;-68
2022/06/21 02:24:52;;;;;;;1999.90;999.90;;;;;;;20.36;47.32;95239.66;4991549;28;20018;-69
2022/06/21 02:27:20;;;;;;;1999.90;999.90;;;;;;;20.22;47.34;95255.69;4991047;28;20030;-68
2022/06/21 02:29:50;;;;;;;1999.90;999.90;;;;;;;20.49;46.88;95245.69;4991412;28;20160;-69
2022/06/21 02:32:23;;;;;;;1999.90;999.90;;;;;;;20.63;46.93;95281.00;4989815;28;20037;-68
2022/06/21 02:34:54;;;;;;;1999.90;999.90;;;;;;;19.39;45.40;95182.53;4991374;28;20120;-69
2022/06/21 02:37:20;;;;;;;1999.90;999.90;;;;;;;19.72;45.24;95250.22;4991206;28;20022;-68
2022/06/21 02:39:46;;;;;;;1999.90;999.90;;;;;;;19.11;43.95;95180.13;4990969;28;20526;-68
2022/06/21 02:42:28;;;;;;;1999.90;999.90;;;;;;;19.36;44.67;95239.91;4989848;28;20153;-68
2022/06/21 02:45:01;;;;;;;1999.90;999.90;;;;;;;19.58;43.74;95274.22;4990715;28;20112;-69
2022/06/21 02:47:31;;;;;;;1999.90;999.90;;;;;;;19.55;43.16;95274.97;4989593;28;20037;-68
2022/06/21 02:50:04;;;;;;;1999.90;999.90;;;;;;;19.18;43.69;95256.53;4990673;28;20026;-69
2022/06/21 02:52:38;;;;;;;1999.90;999.90;;;;;;;19.74;43.59;95268.75;4991030;28;20097;-69
2022/06/21 02:55:23;;;;;;;1999.90;999.90;;;;;;;19.94;43.27;95245.19;4991059;28;20030;-69
2022/06/21 02:57:59;;;;;;;1999.90;999.90;;;;;;;19.61;43.46;95211.50;4990866;28;20022;-68
2022/06/21 03:00:25;;;;;;;1999.90;999.90;;;;;;;20.07;43.97;95253.91;4990480;28;20034;-68
2022/06/21 03:02:52;;;;;;;1999.90;999.90;;;;;;;20.41;43.19;95269.06;4990692;28;20030;-68
2022/06/21 03:05:21;;;;;;;1999.90;999.90;;;;;;;20.00;43.15;95203.25;4990699;28;20023;-68
2022/06/21 03:07:53;;;;;;;1999.90;999.90;;;;;;;20.51;42.84;95270.41;4990268;28;20046;-69
2022/06/21 03:10:25;;;;;;;1999.90;999.90;;;;;;;20.07;42.07;95251.19;4990266;28;20022;-69
2022/06/21 03:13:00;;;;;;;1999.90;999.90;;;;;;;19.63;42.24;95214.59;4990759;28;20054;-69
2022/06/21 03:15:26;;;;;;;1999.90;999.90;;;;;;;20.31;41.87;95279.72;4990639;28;20448;-68
2022/06/21 03:17:57;;;;;;;1999.90;999.90;;;;;;;20.25;41.41;95287.34;4990616;28;20062;-68
2022/06/21 03:20:22;;;;;;;1999.90;999.90;;;;;;;19.82;43.04;95288.56;4990631;28;20035;-68
2022/06/21 03:22:51;;;;;;;1999.90;999.90;;;;;;;19.61;43.24;95278.94;4990283;28;20026;-69
2022/06/21 03:25:23;;;;;;;1999.90;999.90;;;;;;;19.89;43.44;95286.75;4990343;28;20054;-68
2022/06/21 03:27:58;;;;;;;1999.90;999.90;;;;;;;19.74;43.22;95266.84;4990082;28;20094;-69
2022/06/21 03:30:29;;;;;;;1999.90;999.90;;;;;;;19.71;43.19;95232.50;4990026;28;20026;-69
2022/06/21 03:32:56;;;;;;;1999.90;999.90;;;;;;;19.88;42.98;95235.84;4989016;28;20033;-68
2022/06/21 03:35:24;;;;;;;1999.90;999.90;;;;;;;20.29;43.25;95261.19;4990493;28;20348;-68
2022/06/21 03:37:50;;;;;;;1999.90;999.90;;;;;;;20.65;42.47;95286.03;4990186;28;20451;-69
2022/06/21 03:43:14;;;;;;;1999.90;999.90;;;;;;;20.35;42.32;95267.03;4990392;28;20041;-69
2022/06/21 03:45:43;;;;;;;1999.90;999.90;;;;;;;20.49;42.41;95283.50;4988537;28;20069;-69
2022/06/21 03:48:18;;;;;;;1999.90;999.90;;;;;;;20.45;41.92;95282.63;4990008;28;20084;-69
2022/06/21 03:50:53;;;;;;;1999.90;999.90;;;;;;;20.15;41.75;95253.63;4989777;28;20030;-69
2022/06/21 03:53:26;;;;;;;1999.90;999.90;;;;;;;20.24;42.29;95285.78;4990167;28;20049;-68
2022/06/21 03:56:08;;;;;;;1999.90;999.90;;;;;;;20.64;41.67;95281.78;4990082;28;20081;-68
2022/06/21 03:58:54;;;;;;;1999.90;999.90;;;;;;;20.66;40.74;95279.50;4990121;28;20033;-70
2022/06/21 04:01:39;;;;;;;1999.90;999.90;;;;;;;20.65;40.74;95276.00;4989722;28;20026;-68
2022/06/21 04:04:13;;;;;;;1999.90;999.90;;;;;;;20.50;40.39;95239.13;4989765;28;20120;-69
2022/06/21 04:06:58;;;;;;;1999.90;999.90;;;;;;;20.84;40.22;95282.44;4989650;28;20482;-69
2022/06/21 04:09:34;;;;;;;1999.90;999.90;;;;;;;20.29;40.78;95266.56;4990488;28;20398;-68
2022/06/21 04:12:22;;;;;;;1999.90;999.90;;;;;;;20.82;40.49;95290.91;4989537;28;20426;-68
2022/06/21 04:14:51;;;;;;;1999.90;999.90;;;;;;;20.03;41.35;95232.22;4990015;28;20029;-69
2022/06/21 04:17:29;;;;;;;1999.90;999.90;;;;;;;20.11;42.14;95287.88;4989876;28;20069;-68
2022/06/21 04:20:20;;;;;;;1999.90;999.90;;;;;;;20.61;41.54;95282.50;4989758;28;20391;-68
2022/06/21 04:23:19;;;;;;;1999.90;999.90;;;;;;;20.47;40.85;95229.84;4989609;28;20042;-69
2022/06/21 04:25:50;;;;;;;1999.90;999.90;;;;;;;20.66;41.10;95231.63;4989758;28;20033;-69
2022/06/21 04:28:35;;;;;;;1999.90;999.90;;;;;;;20.69;41.74;95247.13;4989551;28;20054;-68
2022/06/21 04:31:14;;;;;;;1999.90;999.90;;;;;;;20.97;41.74;95262.13;4988181;28;20266;-68
2022/06/21 04:33:51;;;;;;;1999.90;999.90;;;;;;;21.17;41.12;95265.47;4989740;28;20042;-68
2022/06/21 04:36:40;;;;;;;1999.90;999.90;;;;;;;20.97;41.19;95235.09;4989519;28;20045;-68
2022/06/21 04:39:11;;;;;;;1999.90;999.90;;;;;;;20.95;40.73;95246.28;4988525;28;20105;-68
2022/06/21 04:41:43;;;;;;;1999.90;999.90;;;;;;;21.03;40.43;95266.06;4989277;28;20026;-68
2022/06/21 04:44:26;;;;;;;1999.90;999.90;;;;;;;20.83;40.53;95235.72;4989672;28;20034;-68
2022/06/21 04:47:00;;;;;;;1999.90;999.90;;;;;;;21.05;39.68;95250.28;4988435;28;20080;-69
2022/06/21 04:49:33;;;;;;;1999.90;999.90;;;;;;;20.77;39.70;95221.72;4988317;28;20693;-68
2022/06/21 04:52:13;;;;;;;1999.90;999.90;;;;;;;21.17;39.62;95265.47;4988994;28;20122;-69
2022/06/21 04:54:39;;;;;;;1999.90;999.90;;;;;;;21.09;39.02;95270.03;4989387;28;20050;-69
2022/06/21 04:57:20;;;;;;;1999.90;999.90;;;;;;;20.66;39.77;95233.53;4991660;28;20034;-69
2022/06/21 04:59:53;;;;;;;1999.90;999.90;;;;;;;21.05;39.65;95250.28;4992025;28;20061;-69
2022/06/21 05:02:23;;;;;;;1999.90;999.90;;;;;;;20.68;40.04;95244.78;4992982;28;20019;-68
2022/06/21 05:04:54;;;;;;;1999.90;999.90;;;;;;;20.67;38.62;95241.28;4991878;28;20030;-68
2022/06/21 05:07:25;;;;;;;1999.90;999.90;;;;;;;20.76;38.24;95254.53;4992848;28;20023;-68
2022/06/21 05:09:54;;;;;;;1999.90;999.90;;;;;;;20.66;38.52;95261.34;4993136;28;20042;-68
2022/06/21 05:12:29;;;;;;;1999.90;999.90;;;;;;;20.86;38.52;95280.16;4993107;28;20414;-70
2022/06/21 05:15:06;;;;;;;1999.90;999.90;;;;;;;20.60;37.48;95216.09;4993163;28;20026;-68
2022/06/21 05:17:35;;;;;;;1999.90;999.90;;;;;;;20.39;39.17;95254.38;4993104;28;20019;-68
2022/06/21 05:20:05;;;;;;;1999.90;999.90;;;;;;;20.43;39.38;95255.22;4992767;28;20464;-69
2022/06/21 05:22:35;;;;;;;1999.90;999.90;;;;;;;20.33;39.24;95240.41;4992727;28;20479;-68
2022/06/21 05:25:05;;;;;;;1999.90;999.90;;;;;;;20.80;38.72;95258.06;4992716;28;20372;-69
2022/06/21 05:27:42;;;;;;;1999.90;999.90;;;;;;;20.62;38.71;95221.91;4992486;28;20471;-69
2022/06/21 05:30:18;;;;;;;1999.90;999.90;;;;;;;20.76;38.63;95211.28;4992146;28;20364;-69
2022/06/21 05:32:54;;;;;;;1999.90;999.90;;;;;;;21.05;38.63;95255.69;4992490;28;20030;-69
2022/06/21 05:35:26;;;;;;;1999.90;999.90;;;;;;;20.99;38.56;95206.56;4992586;28;20449;-68
2022/06/21 05:37:59;;;;;;;1999.90;999.90;;;;;;;20.79;39.04;95185.47;4992416;28;20105;-69
2022/06/21 05:40:41;;;;;;;1999.90;999.90;;;;;;;21.23;39.44;95262.06;4991957;28;20022;-69
2022/06/21 05:43:38;;;;;;;1999.90;999.90;;;;;;;21.49;39.25;95236.88;4991104;28;20834;-68
2022/06/21 05:46:17;;;;;;;1999.90;999.90;;;;;;;21.52;38.77;95203.66;4992485;28;20038;-69
2022/06/21 05:48:44;;;;;;;1999.90;999.90;;;;;;;21.82;38.47;95212.81;4991913;28;20475;-69
2022/06/21 05:51:28;;;;;;;1999.90;999.90;;;;;;;21.94;38.38;95204.41;4991708;28;20036;-68
2022/06/21 05:53:58;;;;;;;1999.90;999.90;;;;;;;21.94;38.48;95202.47;4991964;28;20037;-69
2022/06/21 05:56:26;;;;;;;1999.90;999.90;;;;;;;22.46;38.33;95286.47;4991920;28;20023;-69
2022/06/21 05:59:00;;;;;;;1999.90;999.90;;;;;;;22.52;37.92;95241.59;4991821;28;20022;-69
2022/06/21 06:01:43;;;;;;;1999.90;999.90;;;;;;;22.68;38.27;95263.78;4991544;28;20031;-69
2022/06/21 06:04:20;;;;;;;1999.90;999.90;;;;;;;22.75;37.84;95225.09;4991744;28;20422;-68
2022/06/21 06:06:47;;;;;;;1999.90;999.90;;;;;;;23.33;37.29;95257.53;4991167;28;20027;-69
2022/06/21 06:09:19;;;;;;;1999.90;999.90;;;;;;;23.28;36.61;95203.59;4991735;28;20472;-69
2022/06/21 06:12:11;;;;;;;1999.90;999.90;;;;;;;22.96;36.07;95202.75;4991410;28;20023;-68
2022/06/21 06:14:52;;;;;;;1999.90;999.90;;;;;;;22.88;36.15;95176.69;4991501;28;20114;-69
2022/06/21 06:17:30;;;;;;;1999.90;999.90;;;;;;;22.93;35.34;95208.91;4991594;28;20096;-69
2022/06/21 06:19:57;;;;;;;1999.90;999.90;;;;;;;23.27;35.09;95191.19;4991419;28;20392;-69
2022/06/21 06:22:41;;;;;;;1999.90;999.90;;;;;;;24.18;34.40;95258.88;4991502;28;20142;-69
2022/06/21 06:25:31;;;;;;;1999.90;999.90;;;;;;;24.21;33.21;95260.81;4990186;28;20045;-69
2022/06/21 06:28:15;;;;;;;1999.90;999.90;;;;;;;24.01;32.87;95195.22;4991506;28;20092;-69
2022/06/21 06:30:57;;;;;;;1999.90;999.90;;;;;;;23.81;32.58;95235.56;4990013;28;20108;-69
2022/06/21 06:33:26;;;;;;;1999.90;999.90;;;;;;;23.66;32.75;95214.22;4991554;28;20033;-69
2022/06/21 06:35:55;;;;;;;1999.90;999.90;;;;;;;23.35;33.41;95219.94;4991405;28;20037;-69
2022/06/21 06:38:20;;;;;;;1999.90;999.90;;;;;;;23.22;34.07;95210.56;4991092;28;20133;-70
2022/06/21 06:40:52;;;;;;;1999.90;999.90;;;;;;;23.45;33.84;95231.97;4990637;28;20033;-69
2022/06/21 06:43:24;;;;;;;1999.90;999.90;;;;;;;23.67;33.26;95216.53;4990993;28;20113;-69
2022/06/21 06:45:51;;;;;;;1999.90;999.90;;;;;;;24.33;33.03;95259.63;4990984;28;20427;-70
2022/06/21 06:48:23;;;;;;;1999.90;999.90;;;;;;;24.05;33.29;95274.00;4990725;28;20084;-69
2022/06/21 06:51:16;;;;;;;1999.90;999.90;;;;;;;24.46;33.07;95255.38;4989046;28;20427;-69
2022/06/21 06:53:50;;;;;;;1999.90;999.90;;;;;;;24.70;33.04;95232.03;4990943;28;20052;-70
2022/06/21 06:56:20;;;;;;;1999.90;999.90;;;;;;;25.44;32.84;95248.47;4989568;28;20037;-69
2022/06/21 06:58:53;;;;;;;1999.90;999.90;;;;;;;25.73;32.05;95222.63;4990867;28;20030;-69
2022/06/21 07:01:23;;;;;;;1999.90;999.90;;;;;;;26.33;31.11;95251.41;4990395;28;20057;-70
2022/06/21 07:03:57;;;;;;;1999.90;999.90;;;;;;;26.13;30.66;95258.59;4989543;28;20030;-69
2022/06/21 07:06:43;;;;;;;1999.90;999.90;;;;;;;26.19;30.71;95255.03;4990853;28;20065;-69
2022/06/21 07:09:17;;;;;;;1999.90;999.90;;;;;;;26.38;30.72;95253.72;4990592;28;20026;-69
2022/06/21 07:11:42;;;;;;;1999.90;999.90;;;;;;;25.90;31.47;95259.94;4990300;28;20534;-69
2022/06/21 07:14:15;;;;;;;1999.90;999.90;;;;;;;25.65;31.16;95237.50;4990672;28;20027;-69
2022/06/21 07:16:42;;;;;;;1999.90;999.90;;;;;;;25.37;31.70;95206.50;4990627;28;20030;-69
2022/06/21 07:19:09;;;;;;;1999.90;999.90;;;;;;;25.84;31.49;95239.72;4989847;28;20070;-69
2022/06/21 07:21:37;;;;;;;1999.90;999.90;;;;;;;25.92;31.13;95237.72;4988768;28;20441;-69
2022/06/21 07:24:03;;;;;;;1999.90;999.90;;;;;;;26.37;30.57;95263.06;4990425;28;20479;-69
2022/06/21 07:26:40;;;;;;;1999.90;999.90;;;;;;;26.38;30.89;95236.56;4990422;28;20034;-69
2022/06/21 07:29:46;;;;;;;1999.90;999.90;;;;;;;26.36;30.22;95241.63;4990752;28;20053;-69
2022/06/21 07:32:16;;;;;;;1999.90;999.90;;;;;;;26.22;30.44;95219.97;4982903;28;20482;-69
2022/06/21 07:34:55;;;;;;;1999.90;999.90;;;;;;;25.44;31.27;95253.94;4990001;28;20084;-69
2022/06/21 07:37:32;;;;;;;1999.90;999.90;;;;;;;26.09;31.43;95212.25;4990400;28;20383;-69
2022/06/21 07:40:08;;;;;;;1999.90;999.90;;;;;;;26.90;30.32;95231.78;4990112;28;20074;-70
2022/06/21 07:42:42;;;;;;;1999.90;999.90;;;;;;;27.09;29.98;95210.53;4990148;28;20023;-69
2022/06/21 07:45:20;;;;;;;1999.90;999.90;;;;;;;27.54;29.16;95196.66;4990018;28;20037;-69
2022/06/21 07:48:11;;;;;;;1999.90;999.90;;;;;;;28.19;28.67;95260.16;4989944;28;20027;-69
2022/06/21 07:50:40;;;;;;;1999.90;999.90;;;;;;;28.57;27.91;95249.78;4989573;28;20037;-69
2022/06/21 07:53:22;;;;;;;1999.90;999.90;;;;;;;28.93;27.80;95227.25;4990118;28;20031;-69
2022/06/21 07:56:14;;;;;;;1999.90;999.90;;;;;;;29.74;26.51;95254.19;4989875;28;20101;-69
2022/06/21 07:59:03;;;;;;;1999.90;999.90;;;;;;;29.68;25.79;95253.13;4989864;28;20030;-69
2022/06/21 08:07:26;;;;;;;1999.90;999.90;;;;;;;27.15;29.16;95203.44;4990229;28;20033;-69
2022/06/21 08:10:18;;;;;;;1999.90;999.90;;;;;;;27.22;28.74;95219.72;4989829;28;20073;-70
2022/06/21 08:12:44;;;;;;;1999.90;999.90;;;;;;;27.44;28.37;95182.00;4989838;28;20097;-69
2022/06/21 08:15:09;;;;;;;1999.90;999.90;;;;;;;27.55;28.77;95241.94;4989847;28;20460;-70
2022/06/21 08:17:53;;;;;;;1999.90;999.90;;;;;;;28.10;28.86;95263.44;4989899;28;20467;-69
2022/06/21 08:20:27;;;;;;;1999.90;999.90;;;;;;;28.50;27.76;95249.91;4989680;28;20069;-69
2022/06/21 08:23:01;;;;;;;1999.90;999.90;;;;;;;28.69;27.17;95196.41;4989935;28;20033;-69
2022/06/21 08:25:55;;;;;;;1999.90;999.90;;;;;;;29.57;26.75;95264.34;4989821;28;20037;-69
2022/06/21 08:28:31;;;;;;;1999.90;999.90;;;;;;;29.34;26.54;95210.41;4989712;28;20042;-69
2022/06/21 08:31:33;;;;;;;1999.90;999.90;;;;;;;29.68;25.61;95236.69;4991377;28;20030;-69
2022/06/21 08:34:18;;;;;;;1999.90;999.90;;;;;;;30.48;25.81;95267.38;4991411;28;20034;-69
2022/06/21 08:37:01;;;;;;;1999.90;999.90;;;;;;;30.62;25.34;95258.78;4993570;28;20023;-69
2022/06/21 08:39:34;;;;;;;1999.90;999.90;;;;;;;30.78;25.72;95260.75;4993963;28;20105;-70
2022/06/21 08:42:14;;;;;;;1999.90;999.90;;;;;;;30.71;25.67;95278.19;4993030;28;20022;-70
2022/06/21 08:48:08;;;;;;;1999.90;999.90;;;;;;;31.57;24.63;95262.91;4983517;28;20122;-69
2022/06/21 08:50:52;;;;;;;1999.90;999.90;;;;;;;32.06;24.67;95262.63;4992834;28;20062;-70
2022/06/21 08:53:32;;;;;;;1999.90;999.90;;;;;;;32.25;24.45;95240.84;4993305;28;20089;-70
2022/06/21 08:56:04;;;;;;;1999.90;999.90;;;;;;;31.87;23.66;95274.63;4992986;28;20081;-70
2022/06/21 08:58:29;;;;;;;1999.90;999.90;;;;;;;31.03;24.85;95274.59;4992874;28;20635;-70
2022/06/21 09:01:03;;;;;;;1999.90;999.90;;;;;;;30.81;25.22;95276.34;4992945;28;20034;-72
2022/06/21 09:04:16;;;;;;;1999.90;999.90;;;;;;;29.90;26.33;95270.69;4992988;28;20019;-70
2022/06/21 09:07:01;;;;;;;1999.90;999.90;;;;;;;29.55;27.51;95283.19;4935490;29;20043;-70
2022/06/21 09:09:41;;;;;;;1999.90;999.90;;;;;;;29.79;27.90;95278.38;4992512;28;20058;-70
2022/06/21 09:12:26;;;;;;;1999.90;999.90;;;;;;;30.34;26.89;95284.19;4992609;28;20029;-70
2022/06/21 09:15:01;;;;;;;1999.90;999.90;;;;;;;30.71;26.28;95283.69;4971940;28;20038;-71
2022/06/21 09:17:53;;;;;;;1999.90;999.90;;;;;;;31.20;26.16;95280.81;4992929;28;20022;-71
2022/06/21 09:20:42;;;;;;;1999.90;999.90;;;;;;;31.61;25.55;95282.03;4976527;28;20041;-70
2022/06/21 09:23:20;;;;;;;1999.90;999.90;;;;;;;30.52;25.72;95226.91;4992630;28;20057;-70
2022/06/21 09:26:02;;;;;;;1999.90;999.90;;;;;;;31.12;25.55;95273.19;4992839;28;20030;-70
2022/06/21 09:28:58;;;;;;;1999.90;999.90;;;;;;;30.98;25.50;95279.88;4992521;28;20030;-70
2022/06/21 09:31:41;;;;;;;1999.90;999.90;;;;;;;30.96;25.70;95230.06;4992308;28;20027;-70
2022/06/21 09:34:14;;;;;;;1999.90;999.90;;;;;;;31.47;25.29;95274.22;4992637;28;20026;-70
2022/06/21 09:36:57;;;;;;;1999.90;999.90;;;;;;;30.81;25.03;95273.63;4992187;28;20040;-70
2022/06/21 09:39:31;;;;;;;1999.90;999.90;;;;;;;31.03;25.46;95266.38;4992432;28;20036;-71
2022/06/21 09:42:24;;;;;;;1999.90;999.90;;;;;;;30.41;25.77;95254.63;4990120;28;20422;-70
2022/06/21 09:45:03;;;;;;;1999.90;999.90;;;;;;;30.29;25.88;95250.56;4992124;28;20172;-70
2022/06/21 09:47:41;;;;;;;1999.90;999.90;;;;;;;30.74;25.72;95260.84;4992084;28;20087;-69
2022/06/21 09:50:15;;;;;;;1999.90;999.90;;;;;;;30.76;25.08;95266.69;4991934;28;20034;-70
2022/06/21 09:53:05;;;;;;;1999.90;999.90;;;;;;;30.76;25.39;95257.66;4991909;28;20439;-70
2022/06/21 09:55:36;;;;;;;1999.90;999.90;;;;;;;30.80;25.64;95258.34;4991936;28;20030;-70
2022/06/21 09:58:32;;;;;;;1999.90;999.90;;;;;;;30.42;26.17;95267.13;4992044;28;20109;-70
2022/06/21 10:01:12;;;;;;;1999.90;999.90;;;;;;;30.58;26.22;95262.81;4987304;28;20076;-70
2022/06/21 10:04:11;;;;;;;1999.90;999.90;;;;;;;30.48;26.69;95218.75;4991590;28;20037;-70
2022/06/21 10:06:43;;;;;;;1999.90;999.90;;;;;;;30.63;26.81;95243.09;4991713;28;20403;-70
2022/06/21 10:09:21;;;;;;;1999.90;999.90;;;;;;;30.75;26.57;95245.91;4991872;28;20049;-70
2022/06/21 10:12:05;;;;;;;1999.90;999.90;;;;;;;29.55;27.79;95244.81;4991521;28;20033;-69
2022/06/21 10:14:56;;;;;;;1999.90;999.90;;;;;;;29.84;28.10;95255.94;4991610;28;20030;-69
2022/06/21 10:17:46;;;;;;;1999.90;999.90;;;;;;;30.14;27.88;95254.09;4991741;28;20068;-70
2022/06/21 10:20:32;;;;;;;1999.90;999.90;;;;;;;30.32;27.24;95251.69;4991267;28;20037;-69
2022/06/21 10:23:46;;;;;;;1999.90;999.90;;;;;;;30.99;26.76;95231.94;4983882;28;20053;-70
2022/06/21 10:27:08;;;;;;;1999.90;999.90;;;;;;;30.99;26.87;95232.72;4973341;28;20038;-69
2022/06/21 10:29:51;;;;;;;1999.90;999.90;;;;;;;30.47;27.91;95241.13;4950268;28;20031;-70
2022/06/21 10:32:38;;;;;;;1999.90;999.90;;;;;;;29.18;30.04;95243.22;4950103;28;20034;-70
2022/06/21 10:35:03;;;;;;;1999.90;999.90;;;;;;;29.82;29.39;95239.13;4984949;28;20039;-70
2022/06/21 10:37:46;;;;;;;1999.90;999.90;;;;;;;30.06;28.92;95220.56;4991246;28;20105;-70
2022/06/21 10:40:33;;;;;;;1999.90;999.90;;;;;;;30.01;29.11;95221.06;4990844;28;20022;-70
2022/06/21 10:43:11;;;;;;;1999.90;999.90;;;;;;;30.24;28.51;95229.13;4991241;28;20065;-70
2022/06/21 10:46:07;;;;;;;1999.90;999.90;;;;;;;29.95;29.50;95229.03;4991301;28;20638;-70
2022/06/21 10:48:41;;;;;;;1999.90;999.90;;;;;;;29.96;29.58;95186.69;4990937;28;20078;-70
2022/06/21 10:51:44;;;;;;;1999.90;999.90;;;;;;;30.86;28.84;95225.63;4990820;28;20030;-71
2022/06/21 10:54:54;;;;;;;1999.90;999.90;;;;;;;30.85;28.91;95219.38;4989915;28;20022;-70
2022/06/21 10:57:58;;;;;;;1999.90;999.90;;;;;;;30.98;28.25;95214.72;4966995;28;20545;-69
2022/06/21 11:03:57;;;;;;;1999.90;999.90;;;;;;;30.73;28.77;95218.13;4991097;28;20037;-70
2022/06/21 11:06:57;;;;;;;1999.90;999.90;;;;;;;30.52;28.71;95189.25;4990657;28;20030;-70
2022/06/21 11:09:28;;;;;;;1999.90;999.90;;;;;;;30.39;29.54;95180.16;4990558;28;20106;-70
2022/06/21 11:15:27;;;;;;;1999.90;999.90;;;;;;;30.59;28.85;95160.03;4990792;28;20037;-70
2022/06/21 11:18:05;;;;;;;1999.90;999.90;;;;;;;30.93;30.06;95204.25;4990005;28;20053;-70
2022/06/21 11:20:49;;;;;;;1999.90;999.90;;;;;;;31.01;29.49;95199.31;4988564;28;20037;-70
2022/06/21 11:23:23;;;;;;;1999.90;999.90;;;;;;;30.75;29.91;95201.22;4990569;28;20491;-70
2022/06/21 11:26:10;;;;;;;1999.90;999.90;;;;;;;30.77;29.86;95188.59;4988996;28;20108;-70
2022/06/21 11:29:03;;;;;;;1999.90;999.90;;;;;;;30.51;30.29;95175.94;4990381;28;20034;-70
2022/06/21 11:31:40;;;;;;;1999.90;999.90;;;;;;;29.81;31.57;95147.09;4990186;28;20130;-70
2022/06/21 11:34:24;;;;;;;1999.90;999.90;;;;;;;30.35;31.10;95179.47;4990387;28;20026;-70
2022/06/21 11:37:28;;;;;;;1999.90;999.90;;;;;;;30.28;30.76;95172.19;4990141;28;20073;-70
2022/06/21 11:40:30;;;;;;;1999.90;999.90;;;;;;;29.84;31.97;95170.94;4969506;28;20042;-70
2022/06/21 11:42:57;;;;;;;1999.90;999.90;;;;;;;30.29;31.48;95187.47;4975171;28;20483;-70
2022/06/21 11:45:48;;;;;;;1999.90;999.90;;;;;;;29.78;32.05;95172.63;4990374;28;20033;-70
2022/06/21 11:48:41;;;;;;;1999.90;999.90;;;;;;;30.29;31.70;95192.19;4989010;28;20127;-70
2022/06/21 11:51:09;;;;;;;1999.90;999.90;;;;;;;30.54;31.71;95175.84;4989806;28;20052;-70
2022/06/21 11:53:44;;;;;;;1999.90;999.90;;;;;;;30.38;31.62;95162.16;4990265;28;20102;-70
2022/06/21 11:56:20;;;;;;;1999.90;999.90;;;;;;;30.20;32.37;95154.41;4990032;28;20058;-69